Saint Bethlehem, Tennessee
Current Conditions -  °F | °C
As of 6:52 AM on Monday 22 Dec 2014 (Local Time) from KCKV Reporting Station
Overcast Overcast  
Wind Chill: 41°   Ceiling: 1700
Heat Index: 46°   Visibility: 9mi
Dew Point: 43°   Wind: 9mph
Humidity: 89%   Direction: 140°SE
Pressure: 29.9"   Gusts: NA
Location:  36.57°N, 87.3°W
Report Text: KCKV 221252Z AUTO 14008KT 9SM OVC017 08/06 A2990 RMK AO2 SLP128 T00780061
Loading
Personal Weather Stations






























Interactive Weather Map New forecast layout! Learn more

10-Day Weather Forecast

Advertisements
Track Severe Weather on mobile